NEODyS-2

Near Earth Objects - Dynamic Site
NEODyS ∴ Observatories ∴ Site 691 ∴ Obs & residuals
Contact »
691  ▹ 
OBSERVATIONS AND RESIDUALS

691-Steward Observatory, Kitt Peak-Spacewatch

Detections | Residuals | Detections & Residuals

[1-200] [201-400] [401-600] [601-800] [801-1000] [1001-1200] [1201-1400] [1401-1600] [1601-1800] [1801-2000] [2001-2200] [2201-2400] [2401-2600] [2601-2800] [2801-3000] [3001-3200] [3201-3400] [3401-3600] [3601-3800] [3801-4000] [4001-4200] [4201-4400] [4401-4600] [4601-4800] [4801-5000] [5001-5200] [5201-5400] [5401-5600] [5601-5800] [5801-6000] [6001-6200] [6201-6400] [6401-6600] [6601-6800] [6801-7000] [7001-7200] [7201-7400] [7401-7600] [7601-7800] [7801-8000] [8001-8200] [8201-8400] [8401-8600] [8601-8800] [8801-9000] [9001-9200] [9201-9400] [9401-9600] [9601-9800] [9801-10000] [10001-10200] [10201-10400] [10401-10600] [10601-10800] [10801-11000] [11001-11200] [11201-11400] [11401-11600] [11601-11800] [11801-12000] [12001-12200] [12201-12400] [12401-12600] [12601-12800] [12801-13000] [13001-13200] [13201-13400] [13401-13600] [13601-13800] [13801-14000] [14001-14200] [14201-14400] [14401-14600] [14601-14800] [14801-15000] [15001-15200] [15201-15400] [15401-15600] [15601-15800] [15801-16000] [16001-16200] [16201-16400] [16401-16600] [16601-16800] [16801-17000] [17001-17200] [17201-17400] [17401-17600] [17601-17800] [17801-18000] [18001-18200] [18201-18400] [18401-18600] [18601-18800] [18801-19000] [19001-19200] [19201-19400] [19401-19600] [19601-19800] [19801-20000] [20001-20200] [20201-20400] [20401-20600] [20601-20800] [20801-21000] [21001-21200] [21201-21400] [21401-21600] [21601-21800] [21801-22000] [22001-22200] [22201-22400] [22401-22600] [22601-22800] [22801-23000] [23001-23200] [23201-23400] [23401-23600] [23601-23800] [23801-24000] [24001-24200] [24201-24400] [24401-24600] [24601-24800] [24801-25000] [25001-25200] [25201-25400] [25401-25600] [25601-25800] [25801-26000] [26001-26200] [26201-26400] [26401-26600] [26601-26800] [26801-27000] [27001-27200] [27201-27400] [27401-27600] [27601-27800] [27801-28000] [28001-28200] [28201-28400] [28401-28600] [28601-28800] [28801-29000] [29001-29200] [29201-29400] [29401-29600] [29601-29800] [29801-30000] [30001-30200] [30201-30400] [30401-30600] [30601-30800] [30801-31000] [31001-31200] [31201-31400] [31401-31600] [31601-31800] [31801-32000] [32001-32200] [32201-32400] [32401-32600] [32601-32800] [32801-33000] [33001-33200] [33201-33400] [33401-33600] [33601-33800] [33801-34000] [34001-34200] [34201-34400] [34401-34600] [34601-34800] [34801-35000] [35001-35200] [35201-35400] [35401-35600] [35601-35800] [35801-36000] [36001-36200] [36201-36400] [36401-36600] [36601-36800] [36801-37000] [37001-37200] [37201-37400] [37401-37600] [37601-37800] [37801-38000] [38001-38200] [38201-38400] [38401-38600] [38601-38800] [38801-39000] [39001-39200] [39201-39400] [39401-39600] [39601-39800] [39801-40000] [40001-40200] [40201-40400] [40401-40600] [40601-40800] [40801-41000] [41001-41200] [41201-41400] [41401-41600] [41601-41800] [41801-42000] [42001-42200] [42201-42400] [42401-42600] [42601-42800] [42801-43000] [43001-43200] [43201-43400] [43401-43600] [43601-43800] [43801-44000] [44001-44200] [44201-44400] [44401-44600] [44601-44800] [44801-45000] [45001-45200] [45201-45400] [45401-45600] [45601-45800] [45801-46000] [46001-46200] [46201-46400] [46401-46600] [46601-46800] [46801-47000] [47001-47200] [47201-47400] [47401-47600] [47601-47800] [47801-48000] [48001-48200] [48201-48400] [48401-48600] [48601-48800] [48801-49000] [49001-49200] [49201-49400] [49401-49600] [49601-49800] [49801-50000] [50001-50200] [50201-50388]

Designation T Tech N Date Right Ascension Declination Apparent Magnitude Star Catalog Site code χ Used A Used M
yr-mo-day precision hr:min:sec precision rms F bias residual deg min sec precision rms F bias residual mag/col rms residual
2019JH3 O C K 2019-05-11.24512 1.000E-05 14:32:38.130 1.500E-01 0.500 F 0.196 0.441 -13° 51' 07.20" 1.000E-01 0.500 F 0.091 0.713 20.9 R 0.70 0.50 o 691 1.92 Yes Yes
2019JH3 O C K 2019-05-11.24939 1.000E-05 14:32:39.650 1.500E-01 0.500 F 0.196 -0.325 -13° 51' 30.50" 1.000E-01 0.500 F 0.091 -0.385 20.5 R 0.70 0.10 o 691 1.15 Yes Yes
2019JX2 O C K 2019-05-11.25916 1.000E-05 14:44:15.180 1.500E-01 0.500 F 0.209 0.229 +01° 18' 57.20" 1.000E-01 0.500 F 0.293 0.273 20.9 R 0.70 0.04 o 691 0.72 Yes Yes
2019JX2 O C K 2019-05-11.26337 1.000E-05 14:44:15.420 1.500E-01 0.500 F 0.209 0.071 +01° 18' 52.00" 1.000E-01 0.500 F 0.293 -0.107 21.2 R 0.70 0.34 o 691 0.26 Yes Yes
2019JX2 O C K 2019-05-11.26758 1.000E-05 14:44:15.700 1.500E-01 0.500 F 0.209 0.518 +01° 18' 47.60" 1.000E-01 0.500 F 0.293 0.317 21.0 R 0.70 0.14 o 691 1.23 Yes Yes
2019JT7 O C K 2019-05-11.29821 1.000E-05 16:12:06.400 1.500E-01 0.500 F 0.184 0.150 +15° 45' 45.10" 1.000E-01 0.500 F 0.227 -0.213 21.3 R 0.70 -0.10 o 691 0.53 Yes Yes
2019JT7 O C K 2019-05-11.31126 1.000E-05 16:12:07.040 1.500E-01 0.500 F 0.184 0.001 +15° 46' 09.20" 1.000E-01 0.500 F 0.227 0.202 21.8 R 0.70 0.40 o 691 0.41 Yes Yes
2019JT7 O C K 2019-05-11.32431 1.000E-05 16:12:07.680 1.500E-01 0.500 F 0.184 -0.108 +15° 46' 33.00" 1.000E-01 0.500 F 0.227 0.357 21.5 R 0.70 0.10 o 691 0.75 Yes Yes
2019JG3 O C K 2019-05-11.36765 1.000E-05 15:32:09.780 1.500E-01 0.500 F 0.113 0.413 +29° 40' 54.70" 1.000E-01 0.500 F 0.225 0.437 20.7 R 0.70 0.49 o 691 1.22 Yes Yes
2019JG3 O C K 2019-05-11.36986 1.000E-05 15:32:09.460 1.500E-01 0.500 F 0.113 -0.309 +29° 41' 07.30" 1.000E-01 0.500 F 0.225 0.184 20.3 R 0.70 0.09 o 691 0.73 Yes Yes
2019JG3 O C K 2019-05-11.37207 1.000E-05 15:32:09.220 1.500E-01 0.500 F 0.113 0.010 +29° 41' 19.70" 1.000E-01 0.500 F 0.225 -0.266 20.7 R 0.70 0.49 o 691 0.54 Yes Yes
2018YA3 O C 2019-05-11.37594 1.000E-05 16:22:43.150 1.500E-01 0.500 F 0.170 -1.260 +14° 41' 49.70" 1.000E-01 0.500 F 0.137 -0.593 20.4 V 0.70 -0.05 o 691 2.81 Yes Yes
2018YA3 O C 2019-05-11.38624 1.000E-05 16:22:42.130 1.500E-01 0.500 F 0.170 -0.433 +14° 41' 15.70" 1.000E-01 0.500 F 0.137 -0.014 20.9 V 0.70 0.45 o 691 0.87 Yes Yes
2018YA3 O C 2019-05-11.39654 1.000E-05 16:22:41.040 1.500E-01 0.500 F 0.170 -0.658 +14° 40' 41.80" 1.000E-01 0.500 F 0.137 0.716 20.0 V 0.70 -0.45 o 691 1.97 Yes Yes
2019HR O C H 2019-05-11.39928 1.000E-05 17:27:14.080 1.500E-01 0.500 F 0.154 -0.285 +04° 32' 34.30" 1.000E-01 0.500 F 0.180 -0.217 20.4 R 0.70 0.59 o 691 0.72 Yes Yes
2019HR O C H 2019-05-11.40026 1.000E-05 17:27:14.410 1.500E-01 0.500 F 0.154 0.703 +04° 32' 24.90" 1.000E-01 0.500 F 0.180 0.035 19.8 R 0.70 -0.01 o 691 1.42 Yes Yes
2019JP3 O C K 2019-05-11.40497 1.000E-05 16:37:59.300 1.500E-01 0.500 F 0.157 -0.068 +20° 43' 50.90" 1.000E-01 0.500 F 0.173 -0.082 21.2 R 0.70 -0.04 o 691 0.24 Yes Yes
2019JP3 O C K 2019-05-11.41053 1.000E-05 16:37:59.090 1.500E-01 0.500 F 0.157 -0.213 +20° 43' 25.90" 1.000E-01 0.500 F 0.173 -0.312 21.4 R 0.70 0.16 o 691 0.86 Yes Yes
2019JP3 O C K 2019-05-11.41609 1.000E-05 16:37:58.880 1.500E-01 0.500 F 0.157 -0.378 +20° 43' 01.50" 1.000E-01 0.500 F 0.173 0.099 21.0 R 0.70 -0.24 o 691 0.80 Yes Yes
2019JF5 O C K 2019-05-13.27741 1.000E-05 15:32:50.020 1.500E-01 0.500 F 0.276 -0.386 -09° 46' 00.30" 1.000E-01 0.500 F -0.005 0.484 21.0 R 0.70 0.09 o 691 1.46 Yes Yes
2019JF5 O C K 2019-05-13.28642 1.000E-05 15:32:50.740 1.500E-01 0.500 F 0.276 -0.005 -09° 46' 36.10" 1.000E-01 0.500 F -0.005 -0.303 21.1 R 0.70 0.19 o 691 0.71 Yes Yes
2019JF5 O C K 2019-05-13.29543 1.000E-05 15:32:51.460 1.500E-01 0.500 F 0.311 0.365 -09° 47' 10.80" 1.000E-01 0.500 F 0.086 -0.075 21.3 R 0.70 0.39 o 691 0.82 Yes Yes
2019JF O C K 2019-05-13.31338 1.000E-05 13:41:33.900 1.500E-01 0.500 F 0.269 0.100 -11° 57' 31.40" 1.000E-01 0.500 F 0.090 0.067 21.1 R 0.70 0.28 o 691 0.26 Yes Yes
2019JF O C K 2019-05-13.32580 1.000E-05 13:41:35.670 1.500E-01 0.500 F 0.269 -0.004 -11° 57' 35.90" 1.000E-01 0.500 F 0.090 0.135 20.6 R 0.70 -0.22 o 691 0.29 Yes Yes
2019JF O C K 2019-05-13.33822 1.000E-05 13:41:37.450 1.500E-01 0.500 F 0.269 -0.056 -11° 57' 40.20" 1.000E-01 0.500 F 0.090 0.350 21.2 R 0.70 0.38 o 691 0.76 Yes Yes
2019JK5 O C K 2019-05-13.35068 1.000E-05 14:09:17.880 1.500E-01 0.500 F 0.275 0.024 +05° 34' 27.00" 1.000E-01 0.500 F 0.179 0.141 20.2 R 0.70 -0.30 o 691 0.31 Yes Yes
1993HA O C 2019-05-13.35068 1.000E-05 14:08:29.620 1.500E-01 0.500 F 0.275 -0.632 +05° 10' 26.20" 1.000E-01 0.500 F 0.179 -0.192 20.1 V 0.70 0.11 o 691 1.32 Yes Yes
2019JK5 O C K 2019-05-13.36113 1.000E-05 14:09:15.920 1.500E-01 0.500 F 0.275 0.300 +05° 33' 57.20" 1.000E-01 0.500 F 0.179 0.126 20.2 R 0.70 -0.30 o 691 0.71 Yes Yes
1993HA O C 2019-05-13.36578 1.000E-05 14:08:28.600 1.500E-01 0.500 F 0.275 -0.347 +05° 10' 33.70" 1.000E-01 0.500 F 0.179 0.017 19.8 V 0.70 -0.19 o 691 0.70 Yes Yes
2019JK5 O C K 2019-05-13.37158 1.000E-05 14:09:13.920 1.500E-01 0.500 F 0.275 -0.091 +05° 33' 27.10" 1.000E-01 0.500 F 0.179 -0.193 20.2 R 0.70 -0.30 o 691 0.46 Yes Yes
1993HA O C 2019-05-13.38087 1.000E-05 14:08:27.580 1.500E-01 0.500 F 0.275 -0.181 +05° 10' 41.00" 1.000E-01 0.500 F 0.179 0.052 19.9 V 0.70 -0.10 o 691 0.38 Yes Yes
2019JX5 O C K 2019-05-13.42070 1.000E-05 16:44:38.180 1.500E-01 0.500 F 0.013 -0.235 +25° 51' 03.40" 1.000E-01 0.500 F 0.351 0.390 o 691 1.11 Yes No
2019JX5 O C K 2019-05-13.42474 1.000E-05 16:44:36.910 1.500E-01 0.500 F 0.013 0.498 +25° 51' 26.30" 1.000E-01 0.500 F 0.351 -0.144 20.7 R 0.70 -0.34 o 691 1.20 Yes Yes
2019JX5 O C K 2019-05-13.42880 1.000E-05 16:44:35.540 1.500E-01 0.500 F 0.013 -0.086 +25° 51' 49.80" 1.000E-01 0.500 F 0.351 -0.120 21.5 R 0.70 0.46 o 691 0.33 Yes Yes
2019HX3 O C K 2019-05-14.17197 1.000E-05 14:48:08.160 1.500E-01 0.500 F 0.233 -0.016 -14° 24' 55.80" 1.000E-01 0.500 F 0.096 -0.576 o 691 1.21 Yes No
2019JV2 O C K 2019-05-14.17396 1.000E-05 14:20:18.570 1.500E-01 0.500 F 0.280 -0.105 -09° 33' 45.90" 1.000E-01 0.500 F -0.164 0.457 18.2 R 0.70 0.92 o 691 0.97 Yes Yes
2019HX3 O C K 2019-05-14.17814 1.000E-05 14:48:07.890 1.500E-01 0.500 F 0.233 -0.519 -14° 26' 28.00" 1.000E-01 0.500 F 0.096 -0.280 18.1 R 0.70 0.13 o 691 1.22 Yes Yes
2019JV2 O C K 2019-05-14.18013 1.000E-05 14:20:12.840 1.500E-01 0.500 F 0.280 0.086 -09° 36' 33.20" 1.000E-01 0.500 F -0.164 0.135 17.8 R 0.70 0.52 o 691 0.33 Yes Yes
2019JV2 O C K 2019-05-14.18631 1.000E-05 14:20:07.080 1.500E-01 0.500 F 0.280 0.003 -09° 39' 20.50" 1.000E-01 0.500 F -0.164 -0.137 18.3 R 0.70 1.02 o 691 0.28 Yes Yes
2007KN4 O C 2019-05-14.19252 1.000E-05 14:52:51.260 1.500E-01 0.500 F 0.009 -0.083 -17° 48' 45.60" 1.000E-01 0.500 F 0.042 -0.073 16.4 V 0.70 0.07 o 691 0.22 Yes Yes
2019JX2 O C 2019-05-14.19492 1.000E-05 14:49:04.810 1.500E-01 0.500 F 0.144 -0.194 +00° 12' 22.20" 1.000E-01 0.500 F 0.221 0.238 20.8 V 0.70 -0.20 o 691 0.64 Yes Yes
2007KN4 O C 2019-05-14.20178 1.000E-05 14:52:51.210 1.500E-01 0.500 F 0.009 0.212 -17° 48' 30.00" 1.000E-01 0.500 F 0.042 -0.232 16.5 V 0.70 0.17 o 691 0.63 Yes Yes
2019JX2 O C 2019-05-14.20411 1.000E-05 14:49:05.600 1.500E-01 0.500 F 0.144 -0.291 +00° 12' 07.30" 1.000E-01 0.500 F 0.221 0.003 20.4 V 0.70 -0.59 o 691 0.59 Yes Yes
2007KN4 O C 2019-05-14.21098 1.000E-05 14:52:51.110 1.500E-01 0.500 F 0.009 -0.186 -17° 48' 14.00" 1.000E-01 0.500 F 0.042 0.092 16.7 V 0.70 0.37 o 691 0.42 Yes Yes
2019JX2 O C 2019-05-14.21332 1.000E-05 14:49:06.390 1.500E-01 0.500 F 0.144 -0.310 +00° 11' 52.90" 1.000E-01 0.500 F 0.221 0.316 20.5 V 0.70 -0.49 o 691 0.93 Yes Yes
2019HK4 O C 2019-05-14.27749 1.000E-05 14:54:15.230 1.500E-01 0.500 F 0.171 -0.342 +10° 37' 23.40" 1.000E-01 0.500 F 0.143 -0.032 19.7 V 0.70 0.28 o 691 0.70 Yes Yes
2019HK4 O C 2019-05-14.28718 1.000E-05 14:54:10.000 1.500E-01 0.500 F 0.171 -1.025 +10° 36' 30.40" 1.000E-01 0.500 F 0.143 -0.484 19.8 V 0.70 0.38 o 691 2.32 Yes Yes
2019HK4 O C 2019-05-14.29687 1.000E-05 14:54:04.890 1.500E-01 0.500 F 0.171 0.099 +10° 35' 38.30" 1.000E-01 0.500 F 0.143 0.031 19.8 V 0.70 0.38 o 691 0.21 Yes Yes
2019GB4 O C K 2019-05-14.31408 1.000E-05 16:00:55.890 1.500E-01 0.500 F -0.081 0.000 -17° 10' 12.80" 1.000E-01 0.500 F 0.055 -0.144 18.8 R 0.70 -0.29 o 691 0.29 Yes Yes
2019GB4 O C K 2019-05-14.32682 1.000E-05 16:01:00.720 1.500E-01 0.500 F -0.081 -0.328 -17° 09' 43.10" 1.000E-01 0.500 F 0.055 0.365 19.3 R 0.70 0.21 o 691 1.00 Yes Yes
2019GB4 O C K 2019-05-14.33939 1.000E-05 16:01:05.530 1.500E-01 0.500 F -0.081 0.007 -17° 09' 14.20" 1.000E-01 0.500 F 0.055 0.296 19.2 R 0.70 0.11 o 691 0.60 Yes Yes
2014HO4 O C K 2019-05-14.34417 1.000E-05 16:47:44.700 1.500E-01 0.500 F -0.082 0.153 -14° 32' 09.80" 1.000E-01 0.500 F 0.378 0.203 o 691 0.51 Yes No
2014HO4 O C K 2019-05-14.35651 1.000E-05 16:47:42.380 1.500E-01 0.500 F -0.082 0.237 -14° 32' 19.10" 1.000E-01 0.500 F 0.378 0.122 20.7 R 0.70 0.46 o 691 0.54 Yes Yes
2014HO4 O C K 2019-05-14.36891 1.000E-05 16:47:40.010 1.500E-01 0.500 F -0.082 -0.230 -14° 32' 28.40" 1.000E-01 0.500 F 0.378 0.070 20.7 R 0.70 0.46 o 691 0.48 Yes Yes
2019JY4 O C 2019-05-14.38113 1.000E-05 16:21:23.520 1.500E-01 0.612 F 0.184 0.140 +01° 35' 20.00" 1.000E-01 0.612 F 0.256 0.223 20.5 V 0.70 -0.38 o 691 0.43 Yes Yes
2019JY4 O C K 2019-05-14.38113 1.000E-05 16:21:23.510 1.500E-01 0.612 F 0.184 -0.009 +01° 35' 19.90" 1.000E-01 0.612 F 0.256 0.123 20.5 R 0.70 0.02 o 691 0.20 Yes Yes
2019JY4 O C K 2019-05-14.39260 1.000E-05 16:21:23.420 1.500E-01 0.612 F 0.184 -0.255 +01° 35' 29.60" 1.000E-01 0.612 F 0.256 -0.042 20.5 R 0.70 0.02 o 691 0.42 Yes Yes
2019JY4 O C 2019-05-14.39462 1.000E-05 16:21:23.410 1.500E-01 0.612 F 0.184 -0.212 +01° 35' 31.40" 1.000E-01 0.612 F 0.256 0.021 20.8 V 0.70 -0.08 o 691 0.35 Yes Yes
2019JY4 O C K 2019-05-14.40396 1.000E-05 16:21:23.360 1.500E-01 0.612 F 0.184 -0.077 +01° 35' 39.40" 1.000E-01 0.612 F 0.256 -0.010 20.7 R 0.70 0.22 o 691 0.13 Yes Yes
2019JY4 O C 2019-05-14.40598 1.000E-05 16:21:23.350 1.500E-01 0.612 F 0.184 -0.037 +01° 35' 41.10" 1.000E-01 0.612 F 0.256 -0.047 20.6 V 0.70 -0.28 o 691 0.10 Yes Yes
2018YU O C K 2019-05-14.43784 1.000E-05 21:42:04.590 1.500E-01 0.500 F 0.107 -0.221 +01° 50' 44.60" 1.000E-01 0.500 F 0.298 -0.177 21.2 R 0.70 0.60 o 691 0.57 Yes Yes
2018YU O C K 2019-05-14.45484 1.000E-05 21:42:05.450 1.500E-01 0.500 F 0.107 -0.061 +01° 51' 12.10" 1.000E-01 0.500 F 0.298 0.019 20.9 R 0.70 0.30 o 691 0.13 Yes Yes
2012CP2 O C H 2019-05-14.46739 1.000E-05 20:33:05.820 1.500E-01 0.500 F 0.034 0.144 +18° 19' 51.70" 1.000E-01 0.500 F 0.287 0.062 19.3 R 0.70 0.11 o 691 0.32 Yes Yes
2012CP2 O C H 2019-05-14.47118 1.000E-05 20:33:06.860 1.500E-01 0.500 F 0.034 -0.223 +18° 19' 45.30" 1.000E-01 0.500 F 0.287 -0.070 19.4 R 0.70 0.21 o 691 0.47 Yes Yes
2012CP2 O C H 2019-05-14.47497 1.000E-05 20:33:07.920 1.500E-01 0.500 F 0.034 -0.297 +18° 19' 39.40" 1.000E-01 0.500 F 0.287 0.305 19.1 R 0.70 -0.09 o 691 0.88 Yes Yes
2019JN2 O C K 2019-05-15.14667 1.000E-05 10:18:33.140 1.500E-01 0.500 F 0.148 -0.117 +18° 57' 59.20" 1.000E-01 0.500 F 0.304 -0.234 o 691 0.58 Yes No
2019JN2 O C K 2019-05-15.15664 1.000E-05 10:18:06.310 1.500E-01 0.500 F 0.148 -0.011 +19° 02' 24.20" 1.000E-01 0.500 F 0.304 0.213 19.7 R 0.70 0.19 o 691 0.48 Yes Yes
2019HX3 O C K 2019-05-15.17460 1.000E-05 14:48:07.230 1.500E-01 0.500 F 0.020 0.329 -18° 40' 41.30" 1.000E-01 0.500 F 0.117 0.068 17.9 R 0.70 -0.01 o 691 0.70 Yes Yes
2019HX3 O C K 2019-05-15.18354 1.000E-05 14:48:06.880 1.500E-01 0.500 F 0.020 0.378 -18° 43' 03.00" 1.000E-01 0.500 F 0.117 0.045 18.0 R 0.70 0.09 o 691 0.79 Yes Yes
2019HX3 O C K 2019-05-15.19241 1.000E-05 14:48:06.480 1.500E-01 0.500 F 0.020 -0.117 -18° 45' 23.50" 1.000E-01 0.500 F 0.117 0.084 18.0 R 0.70 0.09 o 691 0.30 Yes Yes
2019JH7 O C K 2019-05-15.25700 1.000E-05 16:08:50.290 1.500E-01 0.500 F 0.046 -0.070 -18° 41' 25.90" 1.000E-01 0.500 F 0.192 0.487 17.8 R 0.70 -0.15 o 691 1.00 Yes Yes
2019JH7 O C K 2019-05-15.26526 1.000E-05 16:08:55.430 1.500E-01 0.500 F 0.046 0.098 -18° 37' 49.70" 1.000E-01 0.500 F 0.192 1.602 17.7 R 0.70 -0.23 o 691 3.16 No Yes
2014HO4 O C K 2019-05-15.26862 1.000E-05 16:44:53.510 1.500E-01 0.500 F 0.017 -0.249 -14° 43' 39.00" 1.000E-01 0.500 F 0.242 -0.011 20.4 R 0.70 0.19 o 691 0.50 Yes Yes
2019JH7 O C K 2019-05-15.27344 1.000E-05 16:09:00.410 1.500E-01 0.500 F 0.046 -0.636 -18° 34' 09.40" 1.000E-01 0.500 F 0.192 2.609 17.8 R 0.70 -0.10 o 691 5.30 No Yes
2014HO4 O C K 2019-05-15.27679 1.000E-05 16:44:51.970 1.500E-01 0.500 F 0.017 -0.034 -14° 43' 44.90" 1.000E-01 0.500 F 0.242 0.247 20.2 R 0.70 -0.01 o 691 0.50 Yes Yes
2016KA1 O C K 2019-05-15.30036 1.000E-05 15:45:46.290 1.500E-01 0.500 F 0.146 0.108 -28° 30' 59.10" 1.000E-01 0.500 F 0.239 -0.074 19.0 R 0.70 0.09 o 691 0.28 Yes Yes
2016KA1 O C K 2019-05-15.31160 1.000E-05 15:45:46.180 1.500E-01 0.500 F 0.146 -0.026 -28° 31' 21.00" 1.000E-01 0.500 F 0.239 -0.079 19.1 R 0.70 0.19 o 691 0.17 Yes Yes
2012CP2 O C K 2019-05-15.40584 1.000E-05 20:37:43.010 1.500E-01 0.500 F 0.096 -0.388 +17° 53' 21.40" 1.000E-01 0.500 F 0.274 -0.192 19.4 R 0.70 0.20 o 691 0.88 Yes Yes
2012CP2 O C K 2019-05-15.42277 1.000E-05 20:37:47.740 1.500E-01 0.500 F 0.096 -0.220 +17° 52' 53.70" 1.000E-01 0.500 F 0.274 0.161 19.5 R 0.70 0.30 o 691 0.56 Yes Yes
2010JL33 O C 2019-05-15.45972 1.000E-05 21:58:35.820 1.500E-01 0.500 F -0.139 -0.155 -18° 17' 04.50" 1.000E-01 0.500 F 0.113 0.099 20.2 V 0.70 0.63 o 691 0.37 Yes Yes
2010JL33 O C 2019-05-15.46323 1.000E-05 21:58:37.020 1.500E-01 0.500 F -0.139 -0.282 -18° 16' 59.60" 1.000E-01 0.500 F 0.113 0.231 20.0 V 0.70 0.43 o 691 0.74 Yes Yes
2010JL33 O C 2019-05-15.46683 1.000E-05 21:58:38.270 1.500E-01 0.500 F -0.139 -0.136 -18° 16' 55.00" 1.000E-01 0.500 F 0.113 -0.061 20.3 V 0.70 0.73 o 691 0.31 Yes Yes
2019JD6 O C K 2019-05-22.43629 1.000E-05 16:49:53.720 1.500E-01 0.500 F 0.288 -0.426 +07° 06' 11.70" 1.000E-01 0.500 F 0.213 0.520 20.9 R 0.70 0.47 o 691 1.37 Yes Yes
2019JD6 O C K 2019-05-22.44802 1.000E-05 16:49:51.970 1.500E-01 0.500 F 0.288 -0.390 +07° 06' 09.90" 1.000E-01 0.500 F 0.213 0.031 20.7 R 0.70 0.27 o 691 0.80 Yes Yes
2019JD6 O C K 2019-05-22.45975 1.000E-05 16:49:50.300 1.500E-01 0.500 F 0.288 0.516 +07° 06' 08.50" 1.000E-01 0.500 F 0.213 0.001 20.5 R 0.70 0.07 o 691 1.06 Yes Yes
2010KC O C K 2019-05-23.14838 1.000E-05 14:29:16.820 1.500E-01 0.500 F 0.282 0.619 +09° 55' 32.00" 1.000E-01 0.500 F 0.275 -0.746 19.4 R 0.70 0.23 o 691 1.99 Yes Yes
2010KC O C K 2019-05-23.15625 1.000E-05 14:29:02.450 1.500E-01 0.500 F 0.282 -0.875 +09° 57' 13.90" 1.000E-01 0.500 F 0.275 0.172 20.1 R 0.70 0.93 o 691 1.83 Yes Yes
2010KC O C K 2019-05-23.16401 1.000E-05 14:28:48.360 1.500E-01 0.500 F 0.282 -0.793 +09° 58' 53.10" 1.000E-01 0.500 F 0.275 -0.204 19.8 R 0.70 0.63 o 691 1.68 Yes Yes
2019JA8 O C K 2019-05-23.17604 1.000E-05 15:01:55.510 1.500E-01 0.500 F 0.202 -0.316 -02° 00' 28.30" 1.000E-01 0.500 F 0.137 0.163 o 691 0.72 Yes No
2019JA8 O C K 2019-05-23.19869 1.000E-05 15:01:54.540 1.500E-01 0.500 F 0.202 0.171 -02° 00' 56.70" 1.000E-01 0.500 F 0.137 -0.143 o 691 0.45 Yes No
2019JC8 O C K 2019-05-23.20478 1.000E-05 15:41:14.740 1.500E-01 0.500 F -0.050 0.786 -16° 37' 47.50" 1.000E-01 0.500 F 0.198 -0.139 20.7 R 0.70 0.24 o 691 1.64 Yes Yes
2019JA8 O C K 2019-05-23.22123 1.000E-05 15:01:53.530 1.500E-01 0.500 F 0.202 0.177 -02° 01' 24.80" 1.000E-01 0.500 F 0.137 -0.272 o 691 0.65 Yes No
2019JC8 O C K 2019-05-23.22732 1.000E-05 15:41:10.280 1.500E-01 0.500 F -0.050 -0.289 -16° 37' 50.20" 1.000E-01 0.500 F 0.198 0.604 o 691 1.38 Yes No
2019JP2 O C 2019-05-24.14772 1.000E-05 12:12:06.530 1.500E-01 0.500 F 0.302 -0.215 -01° 10' 49.90" 1.000E-01 0.500 F 0.204 0.263 19.6 V 0.70 -0.16 o 691 0.68 Yes Yes
2019KG O C K 2019-05-24.15238 1.000E-05 13:37:56.910 1.500E-01 0.500 F 0.177 0.201 +02° 29' 23.90" 1.000E-01 0.500 F 0.041 -0.346 20.4 R 0.70 0.34 o 691 0.81 Yes Yes
2019JP2 O C 2019-05-24.15755 1.000E-05 12:12:06.550 1.500E-01 0.500 F 0.302 -0.303 -01° 10' 08.50" 1.000E-01 0.500 F 0.204 -0.080 19.7 V 0.70 -0.06 o 691 0.63 Yes Yes
2019HK4 O C K 2019-05-24.15874 1.000E-05 13:10:17.600 1.500E-01 0.500 F 0.207 0.075 -09° 25' 11.50" 1.000E-01 0.500 F 0.014 -0.061 19.2 R 0.70 0.32 o 691 0.20 Yes Yes
2019KG O C K 2019-05-24.16088 1.000E-05 13:37:52.310 1.500E-01 0.500 F 0.177 -0.303 +02° 29' 33.10" 1.000E-01 0.500 F 0.041 -0.049 20.7 R 0.70 0.64 o 691 0.63 Yes Yes
2019JP2 O C 2019-05-24.16597 1.000E-05 12:12:06.590 1.500E-01 0.500 F 0.302 -0.042 -01° 09' 32.50" 1.000E-01 0.500 F 0.204 0.163 19.7 V 0.70 -0.06 o 691 0.34 Yes Yes
2019HK4 O C K 2019-05-24.16721 1.000E-05 13:10:11.480 1.500E-01 0.500 F 0.207 0.269 -09° 26' 21.70" 1.000E-01 0.500 F 0.014 0.062 19.5 R 0.70 0.62 o 691 0.57 Yes Yes
2019KC O C K 2019-05-24.17662 1.000E-05 13:15:32.340 1.500E-01 0.500 F 0.191 0.066 +21° 08' 06.80" 1.000E-01 0.500 F 0.274 0.083 20.4 R 0.70 0.02 o 691 0.21 Yes Yes
2019JQ2 O C K 2019-05-24.18065 1.000E-05 13:43:32.970 1.500E-01 0.500 F 0.317 -0.134 -12° 47' 00.10" 1.000E-01 0.500 F 0.140 0.044 21.2 R 0.70 0.23 o 691 0.30 Yes Yes
2019KC O C K 2019-05-24.18871 1.000E-05 13:15:39.270 1.500E-01 0.500 F 0.191 -0.651 +21° 07' 31.30" 1.000E-01 0.500 F 0.274 0.234 20.4 R 0.70 0.02 o 691 1.40 Yes Yes
2019JQ2 O C K 2019-05-24.19263 1.000E-05 13:43:35.070 1.500E-01 0.500 F 0.317 0.203 -12° 46' 45.30" 1.000E-01 0.500 F 0.140 0.043 20.8 R 0.70 -0.17 o 691 0.44 Yes Yes
2019KC O C K 2019-05-24.20075 1.000E-05 13:15:46.220 1.500E-01 0.500 F 0.191 -0.615 +21° 06' 55.70" 1.000E-01 0.500 F 0.274 0.228 20.4 R 0.70 0.02 o 691 1.33 Yes Yes
2019JQ2 O C K 2019-05-24.20503 1.000E-05 13:43:37.210 1.500E-01 0.500 F 0.317 0.093 -12° 46' 30.00" 1.000E-01 0.500 F 0.140 -0.013 20.8 R 0.70 -0.17 o 691 0.20 Yes Yes
2019JP5 O C K 2019-05-24.21090 1.000E-05 12:25:36.910 1.500E-01 0.500 F 0.465 -0.050 -27° 23' 03.90" 1.000E-01 0.500 F 0.229 0.203 21.2 R 0.70 0.22 o 691 0.42 Yes Yes
2019GZ6 O C 2019-05-24.21403 1.000E-05 12:07:45.950 1.500E-01 0.500 F 0.246 -0.297 -07° 36' 38.10" 1.000E-01 0.500 F 0.042 0.113 20.3 V 0.70 -0.02 o 691 0.64 Yes Yes
2019JK1 O C K 2019-05-24.21547 1.000E-05 11:35:45.040 1.500E-01 0.500 F 0.141 -0.359 -11° 12' 58.70" 1.000E-01 0.500 F 0.130 0.005 20.3 R 0.70 -0.19 o 691 0.74 Yes Yes
2019GZ6 O C 2019-05-24.22431 1.000E-05 12:07:46.450 1.500E-01 0.500 F 0.246 -0.419 -07° 36' 58.50" 1.000E-01 0.500 F 0.042 0.042 20.1 V 0.70 -0.22 o 691 0.84 Yes Yes
2019JK1 O C K 2019-05-24.22575 1.000E-05 11:35:47.610 1.500E-01 0.500 F 0.141 0.312 -11° 13' 03.10" 1.000E-01 0.500 F 0.130 -0.057 20.1 R 0.70 -0.39 o 691 0.66 Yes Yes
2019JP5 O C K 2019-05-24.23142 1.000E-05 12:25:35.540 1.500E-01 0.500 F 0.465 0.644 -27° 23' 58.90" 1.000E-01 0.500 F 0.229 0.699 o 691 1.93 Yes No
2019GZ6 O C 2019-05-24.23448 1.000E-05 12:07:46.990 1.500E-01 0.500 F 0.246 0.091 -07° 37' 18.80" 1.000E-01 0.500 F 0.042 -0.154 20.3 V 0.70 -0.02 o 691 0.36 Yes Yes
2019JK1 O C K 2019-05-24.23592 1.000E-05 11:35:50.110 1.500E-01 0.500 F 0.141 0.332 -11° 13' 07.60" 1.000E-01 0.500 F 0.130 -0.277 20.6 R 0.70 0.11 o 691 0.90 Yes Yes
2019JQ7 O C K 2019-05-24.24303 1.000E-05 16:53:42.610 1.500E-01 0.500 F 0.040 0.321 -00° 19' 20.40" 1.000E-01 0.500 F 0.112 0.070 21.7 R 0.70 0.39 o 691 0.69 Yes Yes
2019JQ7 O C K 2019-05-24.24993 1.000E-05 16:53:41.930 1.500E-01 0.500 F 0.040 0.209 -00° 19' 47.70" 1.000E-01 0.500 F 0.112 0.318 21.2 R 0.70 -0.11 o 691 0.81 Yes Yes
2019JU5 O C 2019-05-24.26487 1.000E-05 15:15:37.770 1.500E-01 0.500 F 0.165 -0.140 +12° 54' 03.30" 1.000E-01 0.500 F 0.208 -0.245 20.1 V 0.70 0.15 o 691 0.57 Yes Yes
2019GD3 O C 2019-05-24.26806 1.000E-05 15:19:28.770 1.500E-01 0.500 F 0.156 -0.160 +15° 33' 23.40" 1.000E-01 0.500 F 0.184 -0.015 19.1 V 0.70 -0.10 o 691 0.33 Yes Yes
2019JU5 O C 2019-05-24.27125 1.000E-05 15:15:37.550 1.500E-01 0.500 F 0.165 0.289 +12° 53' 41.60" 1.000E-01 0.500 F 0.208 0.001 20.5 V 0.70 0.55 o 691 0.58 Yes Yes
2019GD3 O C 2019-05-24.27295 1.000E-05 15:19:28.940 1.500E-01 0.500 F 0.156 -0.406 +15° 33' 33.20" 1.000E-01 0.500 F 0.184 0.060 19.1 V 0.70 -0.09 o 691 0.83 Yes Yes
2019JU5 O C 2019-05-24.27615 1.000E-05 15:15:37.320 1.500E-01 0.500 F 0.165 -0.273 +12° 53' 24.60" 1.000E-01 0.500 F 0.208 -0.127 19.6 V 0.70 -0.35 o 691 0.61 Yes Yes
2019GD3 O C 2019-05-24.27784 1.000E-05 15:19:29.150 1.500E-01 0.500 F 0.156 -0.073 +15° 33' 42.90" 1.000E-01 0.500 F 0.184 0.044 19.1 V 0.70 -0.09 o 691 0.18 Yes Yes
2019JT7 O C K 2019-05-24.28107 1.000E-05 16:27:02.880 1.500E-01 0.500 F 0.146 0.109 +22° 24' 29.90" 1.000E-01 0.500 F 0.324 0.108 20.8 R 0.70 -0.18 o 691 0.31 Yes Yes
2019JT7 O C K 2019-05-24.28844 1.000E-05 16:27:03.380 1.500E-01 0.500 F 0.146 0.033 +22° 24' 43.60" 1.000E-01 0.500 F 0.324 -0.017 21.2 R 0.70 0.22 o 691 0.07 Yes Yes
2019JT7 O C K 2019-05-24.29581 1.000E-05 16:27:03.890 1.500E-01 0.500 F 0.146 0.109 +22° 24' 57.10" 1.000E-01 0.500 F 0.324 -0.317 20.9 R 0.70 -0.08 o 691 0.68 Yes Yes
2013LG16 O C K 2019-05-24.33294 1.000E-05 16:33:29.870 1.500E-01 0.500 F 0.081 -0.183 -17° 04' 11.30" 1.000E-01 0.500 F 0.262 -0.545 o 691 1.16 Yes No
2013LG16 O C K 2019-05-24.35084 1.000E-05 16:33:28.150 1.500E-01 0.500 F 0.081 -0.204 -17° 04' 01.70" 1.000E-01 0.500 F 0.262 -0.106 o 691 0.46 Yes No
2013LG16 O C K 2019-05-24.36874 1.000E-05 16:33:26.430 1.500E-01 0.500 F 0.081 -0.235 -17° 03' 52.00" 1.000E-01 0.500 F 0.262 0.410 o 691 0.95 Yes No
2015QO3 O C K 2019-05-24.38748 1.000E-05 13:28:49.360 1.500E-01 0.500 F 0.185 -0.218 +29° 54' 54.50" 1.000E-01 0.500 F 0.240 0.003 19.5 R 0.70 0.65 o 691 0.44 Yes Yes
2015QO3 O C K 2019-05-24.39355 1.000E-05 13:28:50.620 1.500E-01 0.500 F 0.185 -0.171 +29° 54' 14.90" 1.000E-01 0.500 F 0.240 0.158 19.3 R 0.70 0.45 o 691 0.47 Yes Yes
2015QO3 O C K 2019-05-24.39941 1.000E-05 13:28:51.860 1.500E-01 0.500 F 0.185 0.164 +29° 53' 36.00" 1.000E-01 0.500 F 0.240 -0.376 19.4 R 0.70 0.55 o 691 0.83 Yes Yes
2019GN21 O C 2019-05-24.40625 1.000E-05 16:02:04.440 1.500E-01 0.500 F 0.239 -0.943 +15° 27' 41.80" 1.000E-01 0.500 F 0.331 0.248 20.4 V 0.70 -0.61 o 691 1.96 Yes Yes
2018YA3 O C K 2019-05-24.41259 1.000E-05 16:05:29.980 1.500E-01 0.500 F 0.300 0.129 +02° 53' 36.10" 1.000E-01 0.500 F 0.139 0.093 20.0 R 0.70 -0.11 o 691 0.32 Yes Yes
2019JY4 O C K 2019-05-24.41887 1.000E-05 16:20:19.870 1.500E-01 0.500 F 0.235 0.364 +03° 52' 05.10" 1.000E-01 0.500 F 0.152 0.058 20.1 R 0.70 -0.07 o 691 0.74 Yes Yes
2019GN21 O C 2019-05-24.42596 1.000E-05 16:02:05.270 1.500E-01 0.500 F 0.239 -0.047 +15° 27' 25.30" 1.000E-01 0.500 F 0.331 0.147 20.5 V 0.70 -0.51 o 691 0.31 Yes Yes
2018YA3 O C K 2019-05-24.43005 1.000E-05 16:05:28.540 1.500E-01 0.500 F 0.300 0.287 +02° 52' 42.30" 1.000E-01 0.500 F 0.139 0.033 20.0 R 0.70 -0.11 o 691 0.58 Yes Yes
2019JY4 O C K 2019-05-24.43634 1.000E-05 16:20:19.570 1.500E-01 0.500 F 0.235 -0.039 +03° 52' 18.60" 1.000E-01 0.500 F 0.152 0.447 20.2 R 0.70 0.03 o 691 0.90 Yes Yes
2019GN21 O C 2019-05-24.44568 1.000E-05 16:02:06.060 1.500E-01 0.500 F 0.239 0.028 +15° 27' 08.70" 1.000E-01 0.500 F 0.331 0.049 20.7 V 0.70 -0.31 o 691 0.11 Yes Yes
2019JP3 O C K 2019-05-24.46036 1.000E-05 16:31:37.820 1.500E-01 0.500 F 0.175 0.251 -09° 26' 35.30" 1.000E-01 0.500 F 0.165 -0.420 19.0 R 0.70 -0.28 o 691 1.10 Yes Yes
2019JP3 O C K 2019-05-24.46342 1.000E-05 16:31:37.510 1.500E-01 0.500 F 0.175 -0.153 -09° 27' 15.60" 1.000E-01 0.500 F 0.165 -0.051 19.2 R 0.70 -0.08 o 691 0.37 Yes Yes
2019JP3 O C K 2019-05-24.46648 1.000E-05 16:31:37.250 1.500E-01 0.500 F 0.175 0.153 -09° 27' 56.20" 1.000E-01 0.500 F 0.165 0.020 o 691 0.35 Yes No
2019AH11 O C K 2019-05-25.15416 1.000E-05 09:14:32.090 1.500E-01 0.500 F 0.108 -0.313 +11° 31' 10.10" 1.000E-01 0.500 F 0.258 -0.558 21.0 R 0.70 0.01 o 691 1.33 Yes Yes
2019AH11 O C K 2019-05-25.16105 1.000E-05 09:14:33.670 1.500E-01 0.500 F 0.081 -0.984 +11° 31' 13.00" 1.000E-01 0.500 F 0.258 0.463 20.6 R 0.70 -0.39 o 691 2.24 Yes Yes
2019AH11 O C K 2019-05-25.16795 1.000E-05 09:14:35.390 1.500E-01 0.500 F 0.081 0.329 +11° 31' 14.00" 1.000E-01 0.500 F 0.258 -0.417 o 691 1.09 Yes No
2014VK2 O C K 2019-05-25.17556 1.000E-05 10:04:05.560 1.500E-01 0.500 F 0.113 0.164 +29° 04' 37.80" 1.000E-01 0.500 F 0.309 0.488 21.3 R 0.70 0.05 o 691 1.03 Yes Yes
2014VK2 O C K 2019-05-25.18349 1.000E-05 10:04:05.940 1.500E-01 0.500 F 0.113 0.086 +29° 04' 28.80" 1.000E-01 0.500 F 0.309 0.063 21.4 R 0.70 0.15 o 691 0.21 Yes Yes
2014VK2 O C K 2019-05-25.19142 1.000E-05 10:04:06.370 1.500E-01 0.500 F 0.113 0.652 +29° 04' 21.40" 1.000E-01 0.500 F 0.309 1.244 21.8 R 0.70 0.55 o 691 2.81 Yes Yes
2019JK1 O C K 2019-05-25.20056 1.000E-05 11:39:46.610 1.500E-01 0.500 F 0.141 -0.663 -11° 19' 54.00" 1.000E-01 0.500 F 0.130 0.276 20.1 R 0.70 -0.45 o 691 1.49 Yes Yes
2019HG4 O C K 2019-05-25.20452 1.000E-05 11:12:16.550 1.500E-01 0.500 F 0.155 0.438 -00° 32' 05.20" 1.000E-01 0.500 F 0.157 0.138 o 691 0.98 Yes No
2019JK1 O C K 2019-05-25.21714 1.000E-05 11:39:50.600 1.500E-01 0.500 F 0.141 0.787 -11° 20' 01.40" 1.000E-01 0.500 F 0.130 -0.449 o 691 1.89 Yes No
2019HG4 O C K 2019-05-25.22109 1.000E-05 11:12:09.540 1.500E-01 0.500 F 0.155 0.027 -00° 32' 06.10" 1.000E-01 0.500 F 0.157 -0.438 21.1 R 0.70 0.08 o 691 0.94 Yes Yes
2019JK1 O C K 2019-05-25.23376 1.000E-05 11:39:54.460 1.500E-01 0.500 F 0.141 0.144 -11° 20' 07.40" 1.000E-01 0.500 F 0.130 0.212 20.5 R 0.70 -0.06 o 691 0.53 Yes Yes
2019HG4 O C K 2019-05-25.23772 1.000E-05 11:12:02.530 1.500E-01 0.500 F 0.155 -0.220 -00° 32' 05.90" 1.000E-01 0.500 F 0.157 0.090 21.2 R 0.70 0.18 o 691 0.51 Yes Yes
2019JF6 O C K 2019-05-25.29587 1.000E-05 14:47:50.510 1.500E-01 0.500 F 0.269 0.197 -07° 21' 24.20" 1.000E-01 0.500 F -0.019 -0.233 22.7 R 0.70 1.42 o 691 0.69 Yes Yes
2019JU5 O C H 2019-05-25.30847 1.000E-05 15:15:40.280 1.500E-01 0.500 F 0.134 -0.531 +11° 56' 03.00" 1.000E-01 0.500 F 0.157 -0.449 o 691 1.41 Yes No
2019JX6 O C K 2019-05-25.30990 1.000E-05 15:14:52.910 1.500E-01 0.500 F 0.082 0.273 -01° 07' 09.70" 1.000E-01 0.500 F 0.203 0.212 21.3 R 0.70 -0.09 o 691 0.70 Yes Yes
2019JF6 O C K 2019-05-25.31785 1.000E-05 14:47:51.520 1.500E-01 0.500 F 0.253 -0.051 -07° 22' 22.50" 1.000E-01 0.500 F 0.067 -0.065 22.0 R 0.70 0.72 o 691 0.19 Yes Yes
2019JU5 O C H 2019-05-25.33050 1.000E-05 15:15:39.560 1.500E-01 0.500 F 0.134 -0.076 +11° 54' 51.90" 1.000E-01 0.500 F 0.157 0.221 19.6 R 0.70 -0.05 o 691 0.47 Yes Yes
2019JX6 O C K 2019-05-25.33192 1.000E-05 15:14:52.550 1.500E-01 0.500 F 0.082 0.917 -01° 06' 23.60" 1.000E-01 0.500 F 0.203 0.146 21.4 R 0.70 0.01 o 691 1.88 Yes Yes
2019JF6 O C K 2019-05-25.33988 1.000E-05 14:47:52.550 1.500E-01 0.500 F 0.253 -0.262 -07° 23' 20.50" 1.000E-01 0.500 F 0.067 0.550 o 691 1.37 Yes No
2019JU5 O C H 2019-05-25.35244 1.000E-05 15:15:38.840 1.500E-01 0.500 F 0.134 -0.342 +11° 53' 40.10" 1.000E-01 0.500 F 0.157 0.146 19.6 R 0.70 -0.05 o 691 0.75 Yes Yes
2019JX6 O C K 2019-05-25.35386 1.000E-05 15:14:52.100 1.500E-01 0.500 F 0.082 0.038 -01° 05' 37.70" 1.000E-01 0.500 F 0.203 0.031 21.8 R 0.70 0.41 o 691 0.10 Yes Yes
2006MA O C K 2019-05-25.43109 1.000E-05 19:27:56.270 1.500E-01 0.500 F -0.082 -0.072 +00° 17' 36.70" 1.000E-01 0.500 F 0.233 -0.590 o 691 1.21 Yes No
2006MA O C K 2019-05-25.44528 1.000E-05 19:27:57.330 1.500E-01 0.500 F -0.082 0.348 +00° 18' 20.20" 1.000E-01 0.500 F 0.233 -0.730 o 691 1.63 Yes No
2006MA O C K 2019-05-25.45945 1.000E-05 19:27:58.300 1.500E-01 0.500 F -0.082 -0.556 +00° 19' 04.70" 1.000E-01 0.500 F 0.233 0.181 o 691 1.18 Yes No
2019JK1 O C K 2019-05-26.15212 1.000E-05 11:43:30.580 1.500E-01 0.500 F 0.288 0.277 -11° 26' 17.80" 1.000E-01 0.500 F 0.124 -0.077 20.8 R 0.70 0.18 o 691 0.60 Yes Yes
2019GZ6 O C 2019-05-26.15648 1.000E-05 12:09:43.850 1.500E-01 0.500 F 0.328 -0.441 -08° 41' 15.50" 1.000E-01 0.500 F 0.008 -0.496 20.6 V 0.70 0.26 o 691 1.33 Yes Yes
2019JP2 O C H 2019-05-26.15796 1.000E-05 12:12:34.870 1.500E-01 0.500 F 0.266 -0.112 +01° 11' 16.20" 1.000E-01 0.500 F 0.170 0.445 20.0 R 0.70 0.61 o 691 0.93 Yes Yes
2019JK1 O C K 2019-05-26.15931 1.000E-05 11:43:32.170 1.500E-01 0.500 F 0.288 -0.089 -11° 26' 20.80" 1.000E-01 0.500 F 0.124 -0.269 20.6 R 0.70 -0.02 o 691 0.58 Yes Yes
2019GZ6 O C 2019-05-26.16367 1.000E-05 12:09:44.250 1.500E-01 0.500 F 0.328 -0.491 -08° 41' 29.60" 1.000E-01 0.500 F 0.008 -0.189 20.2 V 0.70 -0.14 o 691 1.06 Yes Yes
2019JP2 O C H 2019-05-26.16517 1.000E-05 12:12:34.960 1.500E-01 0.500 F 0.266 0.129 +01° 11' 46.30" 1.000E-01 0.500 F 0.170 0.026 19.8 R 0.70 0.41 o 691 0.26 Yes Yes
2019JK1 O C K 2019-05-26.16651 1.000E-05 11:43:33.760 1.500E-01 0.500 F 0.288 -0.488 -11° 26' 23.20" 1.000E-01 0.500 F 0.124 0.137 20.5 R 0.70 -0.12 o 691 1.05 Yes Yes
2019GZ6 O C 2019-05-26.17087 1.000E-05 12:09:44.640 1.500E-01 0.500 F 0.328 -0.705 -08° 41' 43.90" 1.000E-01 0.500 F 0.008 -0.068 20.2 V 0.70 -0.14 o 691 1.42 Yes Yes
2019JP2 O C H 2019-05-26.17236 1.000E-05 12:12:35.050 1.500E-01 0.500 F 0.266 0.364 +01° 12' 16.90" 1.000E-01 0.500 F 0.170 0.193 19.5 R 0.70 0.11 o 691 0.83 Yes Yes
2010OB O C K 2019-05-26.17540 1.000E-05 13:23:40.100 1.500E-01 0.500 F 0.395 0.089 -25° 28' 50.40" 1.000E-01 0.500 F 0.324 0.410 21.0 R 0.70 0.37 o 691 0.84 Yes Yes
2019JD7 O C K 2019-05-26.18088 1.000E-05 13:06:52.750 1.500E-01 0.500 F 0.165 0.602 -09° 01' 34.90" 1.000E-01 0.500 F -0.022 0.390 21.7 R 0.70 0.35 o 691 1.45 Yes Yes
Ganymed O C 2019-05-26.18088 1.000E-05 13:03:46.670 1.500E-01 0.500 F 0.265 -0.256 -09° 27' 35.10" 1.000E-01 0.500 F 0.045 -0.019 14.6 V 0.70 0.25 o 691 0.51 Yes Yes
2019HK4 O C K 2019-05-26.19461 1.000E-05 12:46:16.610 1.500E-01 0.500 F 0.071 0.091 -14° 01' 56.50" 1.000E-01 0.500 F 0.224 -0.085 o 691 0.25 Yes No
2010OB O C K 2019-05-26.19866 1.000E-05 13:23:39.170 1.500E-01 0.500 F 0.395 1.048 -25° 28' 33.50" 1.000E-01 0.500 F 0.324 -0.441 21.2 R 0.70 0.57 o 691 2.29 Yes Yes
2019JD7 O C K 2019-05-26.20409 1.000E-05 13:06:49.280 1.500E-01 0.500 F 0.165 -0.218 -09° 01' 47.10" 1.000E-01 0.500 F -0.022 0.163 o 691 0.55 Yes No
Ganymed O C 2019-05-26.21115 1.000E-05 13:03:45.830 1.500E-01 0.500 F 0.265 -0.318 -09° 27' 19.10" 1.000E-01 0.500 F 0.045 -0.060 14.6 V 0.70 0.25 o 691 0.65 Yes Yes
2019HK4 O C K 2019-05-26.21783 1.000E-05 12:45:59.830 1.500E-01 0.500 F 0.071 0.433 -14° 05' 00.70" 1.000E-01 0.500 F 0.224 -0.018 19.7 R 0.70 0.66 o 691 0.89 Yes Yes
2010OB O C K 2019-05-26.22188 1.000E-05 13:23:38.110 1.500E-01 0.500 F 0.395 0.180 -25° 28' 13.90" 1.000E-01 0.500 F 0.324 1.192 20.4 R 0.70 -0.23 o 691 2.43 Yes Yes
2019JD7 O C K 2019-05-26.22728 1.000E-05 13:06:45.890 1.500E-01 0.500 F 0.165 -0.005 -09° 01' 58.90" 1.000E-01 0.500 F -0.022 0.265 21.6 R 0.70 0.25 o 691 0.54 Yes Yes
Ganymed O C 2019-05-26.23961 1.000E-05 13:03:45.050 1.500E-01 0.500 F 0.265 -0.268 -09° 27' 04.00" 1.000E-01 0.500 F 0.045 -0.051 14.5 V 0.70 0.15 o 691 0.55 Yes Yes
2019HK4 O C K 2019-05-26.24100 1.000E-05 12:45:43.060 1.500E-01 0.500 F 0.071 0.068 -14° 08' 04.40" 1.000E-01 0.500 F 0.224 -0.202 19.3 R 0.70 0.26 o 691 0.44 Yes Yes
2019JA1 O C K 2019-05-26.25670 1.000E-05 13:13:01.030 1.500E-01 0.500 F 0.242 0.059 -03° 28' 37.50" 1.000E-01 0.500 F 0.180 -0.284 o 691 0.59 Yes No
2019JN1 O C K 2019-05-26.26052 1.000E-05 13:16:46.520 1.500E-01 0.500 F 0.395 0.533 -11° 20' 33.00" 1.000E-01 0.500 F 0.131 0.011 21.2 R 0.70 0.25 o 691 1.11 Yes Yes
2019JA1 O C K 2019-05-26.27591 1.000E-05 13:13:05.680 1.500E-01 0.500 F 0.242 -0.007 -03° 28' 06.30" 1.000E-01 0.500 F 0.180 0.292 20.4 R 0.70 -0.18 o 691 0.59 Yes Yes
2019JN1 O C K 2019-05-26.27974 1.000E-05 13:16:54.480 1.500E-01 0.500 F 0.395 -0.052 -11° 20' 35.90" 1.000E-01 0.500 F 0.131 0.256 21.2 R 0.70 0.25 o 691 0.54 Yes Yes
2019JA1 O C K 2019-05-26.29514 1.000E-05 13:13:10.330 1.500E-01 0.500 F 0.242 -0.662 -03° 27' 36.10" 1.000E-01 0.500 F 0.180 -0.199 20.6 R 0.70 0.02 o 691 1.41 Yes Yes
2019JN1 O C K 2019-05-26.29895 1.000E-05 13:17:02.530 1.500E-01 0.500 F 0.395 0.256 -11° 20' 39.10" 1.000E-01 0.500 F 0.131 0.048 21.8 R 0.70 0.85 o 691 0.54 Yes Yes
2019KT O C K 2019-05-26.30869 1.000E-05 14:19:23.340 1.500E-01 0.500 F -0.015 1.000 -01° 13' 34.60" 1.000E-01 0.500 F 0.269 1.924 18.4 R 0.70 0.30 o 691 4.24 No Yes
2019KT O C K 2019-05-26.31669 1.000E-05 14:19:27.540 1.500E-01 0.500 F -0.015 1.261 -01° 11' 30.00" 1.000E-01 0.500 F 0.269 2.213 18.2 R 0.70 0.11 o 691 4.98 No Yes
2019KT O C K 2019-05-26.32468 1.000E-05 14:19:31.840 1.500E-01 0.500 F -0.015 1.794 -01° 09' 24.40" 1.000E-01 0.500 F 0.269 2.597 18.0 R 0.70 -0.08 o 691 6.16 No Yes
2019JQ7 O C K 2019-05-26.42885 1.000E-05 16:50:25.160 1.500E-01 0.500 F 0.017 -0.441 -02° 47' 07.00" 1.000E-01 0.500 F 0.053 0.763 o 691 1.87 Yes No
2019JQ7 O C K 2019-05-26.44311 1.000E-05 16:50:23.760 1.500E-01 0.500 F 0.017 0.323 -02° 48' 07.00" 1.000E-01 0.500 F 0.053 -0.629 o 691 1.50 Yes No
2019JQ7 O C K 2019-05-26.45738 1.000E-05 16:50:22.250 1.500E-01 0.500 F 0.017 -0.695 -02° 49' 06.10" 1.000E-01 0.500 F 0.053 -1.080 21.9 R 0.70 0.69 o 691 2.72 Yes Yes
2019KJ5 O C K 2019-05-27.28051 1.000E-05 14:45:21.500 1.500E-01 0.500 F 0.215 0.186 -24° 22' 34.80" 1.000E-01 0.500 F 0.317 -0.210 o 691 0.56 Yes No
2019KJ5 O C K 2019-05-27.28725 1.000E-05 14:45:20.990 1.500E-01 0.500 F 0.215 -0.048 -24° 22' 29.30" 1.000E-01 0.500 F 0.317 -0.073 o 691 0.18 Yes No

[1-200] [201-400] [401-600] [601-800] [801-1000] [1001-1200] [1201-1400] [1401-1600] [1601-1800] [1801-2000] [2001-2200] [2201-2400] [2401-2600] [2601-2800] [2801-3000] [3001-3200] [3201-3400] [3401-3600] [3601-3800] [3801-4000] [4001-4200] [4201-4400] [4401-4600] [4601-4800] [4801-5000] [5001-5200] [5201-5400] [5401-5600] [5601-5800] [5801-6000] [6001-6200] [6201-6400] [6401-6600] [6601-6800] [6801-7000] [7001-7200] [7201-7400] [7401-7600] [7601-7800] [7801-8000] [8001-8200] [8201-8400] [8401-8600] [8601-8800] [8801-9000] [9001-9200] [9201-9400] [9401-9600] [9601-9800] [9801-10000] [10001-10200] [10201-10400] [10401-10600] [10601-10800] [10801-11000] [11001-11200] [11201-11400] [11401-11600] [11601-11800] [11801-12000] [12001-12200] [12201-12400] [12401-12600] [12601-12800] [12801-13000] [13001-13200] [13201-13400] [13401-13600] [13601-13800] [13801-14000] [14001-14200] [14201-14400] [14401-14600] [14601-14800] [14801-15000] [15001-15200] [15201-15400] [15401-15600] [15601-15800] [15801-16000] [16001-16200] [16201-16400] [16401-16600] [16601-16800] [16801-17000] [17001-17200] [17201-17400] [17401-17600] [17601-17800] [17801-18000] [18001-18200] [18201-18400] [18401-18600] [18601-18800] [18801-19000] [19001-19200] [19201-19400] [19401-19600] [19601-19800] [19801-20000] [20001-20200] [20201-20400] [20401-20600] [20601-20800] [20801-21000] [21001-21200] [21201-21400] [21401-21600] [21601-21800] [21801-22000] [22001-22200] [22201-22400] [22401-22600] [22601-22800] [22801-23000] [23001-23200] [23201-23400] [23401-23600] [23601-23800] [23801-24000] [24001-24200] [24201-24400] [24401-24600] [24601-24800] [24801-25000] [25001-25200] [25201-25400] [25401-25600] [25601-25800] [25801-26000] [26001-26200] [26201-26400] [26401-26600] [26601-26800] [26801-27000] [27001-27200] [27201-27400] [27401-27600] [27601-27800] [27801-28000] [28001-28200] [28201-28400] [28401-28600] [28601-28800] [28801-29000] [29001-29200] [29201-29400] [29401-29600] [29601-29800] [29801-30000] [30001-30200] [30201-30400] [30401-30600] [30601-30800] [30801-31000] [31001-31200] [31201-31400] [31401-31600] [31601-31800] [31801-32000] [32001-32200] [32201-32400] [32401-32600] [32601-32800] [32801-33000] [33001-33200] [33201-33400] [33401-33600] [33601-33800] [33801-34000] [34001-34200] [34201-34400] [34401-34600] [34601-34800] [34801-35000] [35001-35200] [35201-35400] [35401-35600] [35601-35800] [35801-36000] [36001-36200] [36201-36400] [36401-36600] [36601-36800] [36801-37000] [37001-37200] [37201-37400] [37401-37600] [37601-37800] [37801-38000] [38001-38200] [38201-38400] [38401-38600] [38601-38800] [38801-39000] [39001-39200] [39201-39400] [39401-39600] [39601-39800] [39801-40000] [40001-40200] [40201-40400] [40401-40600] [40601-40800] [40801-41000] [41001-41200] [41201-41400] [41401-41600] [41601-41800] [41801-42000] [42001-42200] [42201-42400] [42401-42600] [42601-42800] [42801-43000] [43001-43200] [43201-43400] [43401-43600] [43601-43800] [43801-44000] [44001-44200] [44201-44400] [44401-44600] [44601-44800] [44801-45000] [45001-45200] [45201-45400] [45401-45600] [45601-45800] [45801-46000] [46001-46200] [46201-46400] [46401-46600] [46601-46800] [46801-47000] [47001-47200] [47201-47400] [47401-47600] [47601-47800] [47801-48000] [48001-48200] [48201-48400] [48401-48600] [48601-48800] [48801-49000] [49001-49200] [49201-49400] [49401-49600] [49601-49800] [49801-50000] [50001-50200] [50201-50388]